sensor_id;sensor_type;location;lat;lon;timestamp;P1;durP1;ratioP1;P2;durP2;ratioP2
41101;SDS011;26845;50.190;19.178;2022-12-29T00:00:20;8.73;;;4.17;;
41101;SDS011;26845;50.190;19.178;2022-12-29T00:02:47;9.20;;;4.22;;
41101;SDS011;26845;50.190;19.178;2022-12-29T00:05:14;8.68;;;4.28;;
41101;SDS011;26845;50.190;19.178;2022-12-29T00:07:41;7.33;;;3.10;;
41101;SDS011;26845;50.190;19.178;2022-12-29T00:10:08;8.45;;;4.10;;
41101;SDS011;26845;50.190;19.178;2022-12-29T00:12:35;7.75;;;3.45;;
41101;SDS011;26845;50.190;19.178;2022-12-29T00:15:22;6.60;;;3.33;;
41101;SDS011;26845;50.190;19.178;2022-12-29T00:18:05;7.83;;;4.25;;
41101;SDS011;26845;50.190;19.178;2022-12-29T00:20:34;7.45;;;3.67;;
41101;SDS011;26845;50.190;19.178;2022-12-29T00:23:24;8.20;;;3.85;;
41101;SDS011;26845;50.190;19.178;2022-12-29T00:26:13;8.23;;;3.70;;
41101;SDS011;26845;50.190;19.178;2022-12-29T00:29:00;6.72;;;3.72;;
41101;SDS011;26845;50.190;19.178;2022-12-29T00:31:45;9.98;;;4.05;;
41101;SDS011;26845;50.190;19.178;2022-12-29T00:34:31;8.55;;;4.42;;
41101;SDS011;26845;50.190;19.178;2022-12-29T00:37:18;7.85;;;3.80;;
41101;SDS011;26845;50.190;19.178;2022-12-29T00:39:47;5.33;;;3.45;;
41101;SDS011;26845;50.190;19.178;2022-12-29T00:42:32;6.62;;;3.75;;
41101;SDS011;26845;50.190;19.178;2022-12-29T00:45:18;8.33;;;4.15;;
41101;SDS011;26845;50.190;19.178;2022-12-29T00:47:45;8.70;;;4.12;;
41101;SDS011;26845;50.190;19.178;2022-12-29T00:50:11;9.90;;;4.25;;
41101;SDS011;26845;50.190;19.178;2022-12-29T00:52:38;5.62;;;3.25;;
41101;SDS011;26845;50.190;19.178;2022-12-29T00:55:08;7.30;;;3.98;;
41101;SDS011;26845;50.190;19.178;2022-12-29T00:57:35;8.78;;;3.92;;
41101;SDS011;26845;50.190;19.178;2022-12-29T01:00:02;6.78;;;3.90;;
41101;SDS011;26845;50.190;19.178;2022-12-29T01:02:29;6.58;;;3.45;;
41101;SDS011;26845;50.190;19.178;2022-12-29T01:04:56;7.53;;;3.90;;
41101;SDS011;26845;50.190;19.178;2022-12-29T01:07:23;8.80;;;4.15;;
41101;SDS011;26845;50.190;19.178;2022-12-29T01:09:50;12.25;;;4.25;;
41101;SDS011;26845;50.190;19.178;2022-12-29T01:12:35;9.85;;;4.33;;
41101;SDS011;26845;50.190;19.178;2022-12-29T01:15:08;10.43;;;4.62;;
41101;SDS011;26845;50.190;19.178;2022-12-29T01:17:39;8.50;;;4.42;;
41101;SDS011;26845;50.190;19.178;2022-12-29T01:20:06;8.58;;;4.72;;
41101;SDS011;26845;50.190;19.178;2022-12-29T01:22:34;8.95;;;4.28;;
41101;SDS011;26845;50.190;19.178;2022-12-29T01:25:01;6.75;;;4.00;;
41101;SDS011;26845;50.190;19.178;2022-12-29T01:27:28;8.48;;;4.40;;
41101;SDS011;26845;50.190;19.178;2022-12-29T01:29:55;6.72;;;3.50;;
41101;SDS011;26845;50.190;19.178;2022-12-29T01:32:22;7.35;;;4.33;;
41101;SDS011;26845;50.190;19.178;2022-12-29T01:34:50;7.65;;;3.80;;
41101;SDS011;26845;50.190;19.178;2022-12-29T01:37:17;9.15;;;4.83;;
41101;SDS011;26845;50.190;19.178;2022-12-29T01:39:45;7.20;;;4.17;;
41101;SDS011;26845;50.190;19.178;2022-12-29T01:42:16;9.03;;;4.22;;
41101;SDS011;26845;50.190;19.178;2022-12-29T01:44:55;7.67;;;4.28;;
41101;SDS011;26845;50.190;19.178;2022-12-29T01:47:28;9.05;;;4.72;;
41101;SDS011;26845;50.190;19.178;2022-12-29T01:50:25;10.58;;;4.05;;
41101;SDS011;26845;50.190;19.178;2022-12-29T01:53:05;9.73;;;4.60;;
41101;SDS011;26845;50.190;19.178;2022-12-29T01:55:34;6.75;;;3.87;;
41101;SDS011;26845;50.190;19.178;2022-12-29T01:58:04;10.35;;;4.85;;
41101;SDS011;26845;50.190;19.178;2022-12-29T02:00:33;6.62;;;4.40;;
41101;SDS011;26845;50.190;19.178;2022-12-29T02:03:00;8.15;;;3.95;;
41101;SDS011;26845;50.190;19.178;2022-12-29T02:05:28;10.15;;;3.98;;
41101;SDS011;26845;50.190;19.178;2022-12-29T02:08:16;7.85;;;3.62;;
41101;SDS011;26845;50.190;19.178;2022-12-29T02:10:43;9.33;;;4.45;;
41101;SDS011;26845;50.190;19.178;2022-12-29T02:13:11;10.35;;;4.55;;
41101;SDS011;26845;50.190;19.178;2022-12-29T02:15:43;7.47;;;4.12;;
41101;SDS011;26845;50.190;19.178;2022-12-29T02:29:51;7.35;;;4.00;;
41101;SDS011;26845;50.190;19.178;2022-12-29T02:38:25;6.33;;;3.98;;
41101;SDS011;26845;50.190;19.178;2022-12-29T02:41:07;6.92;;;3.95;;
41101;SDS011;26845;50.190;19.178;2022-12-29T02:46:50;5.10;;;3.25;;
41101;SDS011;26845;50.190;19.178;2022-12-29T02:49:28;6.97;;;3.60;;
41101;SDS011;26845;50.190;19.178;2022-12-29T02:52:06;7.67;;;3.95;;
41101;SDS011;26845;50.190;19.178;2022-12-29T02:54:54;6.05;;;3.67;;
41101;SDS011;26845;50.190;19.178;2022-12-29T02:59:56;7.22;;;4.47;;
41101;SDS011;26845;50.190;19.178;2022-12-29T03:19:14;8.03;;;4.22;;
41101;SDS011;26845;50.190;19.178;2022-12-29T03:21:55;7.28;;;3.60;;
41101;SDS011;26845;50.190;19.178;2022-12-29T03:24:49;8.38;;;3.95;;
41101;SDS011;26845;50.190;19.178;2022-12-29T03:27:22;5.87;;;3.67;;
41101;SDS011;26845;50.190;19.178;2022-12-29T03:30:05;5.78;;;3.65;;
41101;SDS011;26845;50.190;19.178;2022-12-29T03:32:36;10.10;;;4.05;;
41101;SDS011;26845;50.190;19.178;2022-12-29T03:35:16;7.75;;;4.25;;
41101;SDS011;26845;50.190;19.178;2022-12-29T03:37:50;7.47;;;3.92;;
41101;SDS011;26845;50.190;19.178;2022-12-29T03:40:31;11.18;;;4.97;;
41101;SDS011;26845;50.190;19.178;2022-12-29T03:43:01;9.50;;;5.03;;
41101;SDS011;26845;50.190;19.178;2022-12-29T03:45:29;12.27;;;4.53;;
41101;SDS011;26845;50.190;19.178;2022-12-29T03:47:56;11.53;;;6.33;;
41101;SDS011;26845;50.190;19.178;2022-12-29T03:50:23;9.93;;;5.70;;
41101;SDS011;26845;50.190;19.178;2022-12-29T03:52:49;9.48;;;5.87;;
41101;SDS011;26845;50.190;19.178;2022-12-29T03:55:16;10.65;;;5.20;;
41101;SDS011;26845;50.190;19.178;2022-12-29T03:57:43;10.50;;;4.83;;
41101;SDS011;26845;50.190;19.178;2022-12-29T04:00:10;9.18;;;4.92;;
41101;SDS011;26845;50.190;19.178;2022-12-29T04:02:40;7.37;;;4.08;;
41101;SDS011;26845;50.190;19.178;2022-12-29T04:05:07;6.62;;;4.40;;
41101;SDS011;26845;50.190;19.178;2022-12-29T04:07:34;8.08;;;4.58;;
41101;SDS011;26845;50.190;19.178;2022-12-29T04:10:01;9.38;;;4.70;;
41101;SDS011;26845;50.190;19.178;2022-12-29T04:12:28;9.58;;;4.33;;
41101;SDS011;26845;50.190;19.178;2022-12-29T04:14:55;7.90;;;3.92;;
41101;SDS011;26845;50.190;19.178;2022-12-29T04:17:22;8.45;;;4.35;;
41101;SDS011;26845;50.190;19.178;2022-12-29T04:19:49;8.58;;;4.75;;
41101;SDS011;26845;50.190;19.178;2022-12-29T04:22:17;7.42;;;3.67;;
41101;SDS011;26845;50.190;19.178;2022-12-29T04:24:44;7.45;;;3.40;;
41101;SDS011;26845;50.190;19.178;2022-12-29T04:27:11;6.08;;;3.22;;
41101;SDS011;26845;50.190;19.178;2022-12-29T04:29:37;9.13;;;5.10;;
41101;SDS011;26845;50.190;19.178;2022-12-29T04:32:04;7.20;;;4.33;;
41101;SDS011;26845;50.190;19.178;2022-12-29T04:34:31;10.88;;;6.28;;
41101;SDS011;26845;50.190;19.178;2022-12-29T04:36:58;5.60;;;3.40;;
41101;SDS011;26845;50.190;19.178;2022-12-29T04:39:25;8.23;;;4.80;;
41101;SDS011;26845;50.190;19.178;2022-12-29T04:41:51;10.90;;;4.97;;
41101;SDS011;26845;50.190;19.178;2022-12-29T04:44:18;7.40;;;4.00;;
41101;SDS011;26845;50.190;19.178;2022-12-29T04:46:45;9.03;;;4.53;;
41101;SDS011;26845;50.190;19.178;2022-12-29T04:49:12;11.12;;;4.55;;
41101;SDS011;26845;50.190;19.178;2022-12-29T04:51:39;11.18;;;5.78;;
41101;SDS011;26845;50.190;19.178;2022-12-29T04:54:06;11.22;;;6.10;;
41101;SDS011;26845;50.190;19.178;2022-12-29T04:56:32;13.40;;;5.95;;
41101;SDS011;26845;50.190;19.178;2022-12-29T04:58:59;11.03;;;5.53;;
41101;SDS011;26845;50.190;19.178;2022-12-29T05:01:26;7.80;;;4.90;;
41101;SDS011;26845;50.190;19.178;2022-12-29T05:03:53;11.80;;;6.08;;
41101;SDS011;26845;50.190;19.178;2022-12-29T05:06:20;9.60;;;4.40;;
41101;SDS011;26845;50.190;19.178;2022-12-29T05:08:47;10.93;;;4.58;;
41101;SDS011;26845;50.190;19.178;2022-12-29T05:11:14;7.42;;;4.00;;
41101;SDS011;26845;50.190;19.178;2022-12-29T05:13:40;7.08;;;4.08;;
41101;SDS011;26845;50.190;19.178;2022-12-29T05:16:09;13.38;;;6.62;;
41101;SDS011;26845;50.190;19.178;2022-12-29T05:18:38;12.95;;;5.47;;
41101;SDS011;26845;50.190;19.178;2022-12-29T05:21:05;8.88;;;4.78;;
41101;SDS011;26845;50.190;19.178;2022-12-29T05:23:32;8.95;;;5.05;;
41101;SDS011;26845;50.190;19.178;2022-12-29T05:25:58;8.78;;;4.67;;
41101;SDS011;26845;50.190;19.178;2022-12-29T05:28:25;4.40;;;3.40;;
41101;SDS011;26845;50.190;19.178;2022-12-29T05:30:52;9.78;;;4.45;;
41101;SDS011;26845;50.190;19.178;2022-12-29T05:33:19;10.05;;;4.30;;
41101;SDS011;26845;50.190;19.178;2022-12-29T05:35:48;10.32;;;5.60;;
41101;SDS011;26845;50.190;19.178;2022-12-29T05:38:15;8.98;;;5.62;;
41101;SDS011;26845;50.190;19.178;2022-12-29T05:40:44;7.08;;;4.33;;
41101;SDS011;26845;50.190;19.178;2022-12-29T05:43:11;11.63;;;5.87;;
41101;SDS011;26845;50.190;19.178;2022-12-29T05:45:38;11.40;;;5.30;;
41101;SDS011;26845;50.190;19.178;2022-12-29T05:48:05;9.20;;;4.62;;
41101;SDS011;26845;50.190;19.178;2022-12-29T05:50:34;11.48;;;5.42;;
41101;SDS011;26845;50.190;19.178;2022-12-29T05:53:00;11.10;;;4.87;;
41101;SDS011;26845;50.190;19.178;2022-12-29T05:55:27;12.05;;;5.75;;
41101;SDS011;26845;50.190;19.178;2022-12-29T05:57:56;12.58;;;5.22;;
41101;SDS011;26845;50.190;19.178;2022-12-29T06:00:23;11.48;;;5.00;;
41101;SDS011;26845;50.190;19.178;2022-12-29T06:02:50;9.58;;;5.03;;
41101;SDS011;26845;50.190;19.178;2022-12-29T06:05:17;10.48;;;5.28;;
41101;SDS011;26845;50.190;19.178;2022-12-29T06:07:44;10.93;;;5.60;;
41101;SDS011;26845;50.190;19.178;2022-12-29T06:10:11;12.95;;;5.65;;
41101;SDS011;26845;50.190;19.178;2022-12-29T06:12:39;10.28;;;4.95;;
41101;SDS011;26845;50.190;19.178;2022-12-29T06:15:06;9.48;;;5.65;;
41101;SDS011;26845;50.190;19.178;2022-12-29T06:17:33;10.20;;;6.05;;
41101;SDS011;26845;50.190;19.178;2022-12-29T06:20:01;9.30;;;5.83;;
41101;SDS011;26845;50.190;19.178;2022-12-29T06:22:29;12.60;;;6.00;;
41101;SDS011;26845;50.190;19.178;2022-12-29T06:24:57;14.47;;;6.72;;
41101;SDS011;26845;50.190;19.178;2022-12-29T06:27:24;20.15;;;6.97;;
41101;SDS011;26845;50.190;19.178;2022-12-29T06:29:51;12.88;;;6.35;;
41101;SDS011;26845;50.190;19.178;2022-12-29T06:32:18;11.00;;;5.75;;
41101;SDS011;26845;50.190;19.178;2022-12-29T06:34:46;11.70;;;5.55;;
41101;SDS011;26845;50.190;19.178;2022-12-29T06:37:13;16.57;;;6.22;;
41101;SDS011;26845;50.190;19.178;2022-12-29T06:39:45;16.35;;;6.28;;
41101;SDS011;26845;50.190;19.178;2022-12-29T06:42:15;14.38;;;6.42;;
41101;SDS011;26845;50.190;19.178;2022-12-29T06:44:42;12.45;;;6.65;;
41101;SDS011;26845;50.190;19.178;2022-12-29T06:47:09;11.18;;;5.75;;
41101;SDS011;26845;50.190;19.178;2022-12-29T06:49:36;9.85;;;5.67;;
41101;SDS011;26845;50.190;19.178;2022-12-29T06:52:03;13.55;;;6.45;;
41101;SDS011;26845;50.190;19.178;2022-12-29T06:54:31;13.15;;;5.92;;
41101;SDS011;26845;50.190;19.178;2022-12-29T06:56:58;11.60;;;5.25;;
41101;SDS011;26845;50.190;19.178;2022-12-29T06:59:25;11.40;;;5.80;;
41101;SDS011;26845;50.190;19.178;2022-12-29T07:01:52;16.27;;;6.37;;
41101;SDS011;26845;50.190;19.178;2022-12-29T07:04:19;11.68;;;5.83;;
41101;SDS011;26845;50.190;19.178;2022-12-29T07:06:48;11.48;;;5.75;;
41101;SDS011;26845;50.190;19.178;2022-12-29T07:09:14;10.08;;;5.47;;
41101;SDS011;26845;50.190;19.178;2022-12-29T07:11:41;10.72;;;5.60;;
41101;SDS011;26845;50.190;19.178;2022-12-29T07:14:10;10.75;;;5.97;;
41101;SDS011;26845;50.190;19.178;2022-12-29T07:16:37;14.10;;;6.35;;
41101;SDS011;26845;50.190;19.178;2022-12-29T07:19:06;14.23;;;7.92;;
41101;SDS011;26845;50.190;19.178;2022-12-29T07:21:33;12.05;;;7.05;;
41101;SDS011;26845;50.190;19.178;2022-12-29T07:24:00;13.53;;;7.40;;
41101;SDS011;26845;50.190;19.178;2022-12-29T07:26:27;16.27;;;7.80;;
41101;SDS011;26845;50.190;19.178;2022-12-29T07:28:54;13.55;;;7.12;;
41101;SDS011;26845;50.190;19.178;2022-12-29T07:31:22;14.50;;;6.50;;
41101;SDS011;26845;50.190;19.178;2022-12-29T07:33:49;11.28;;;6.55;;
41101;SDS011;26845;50.190;19.178;2022-12-29T07:36:16;14.93;;;7.10;;
41101;SDS011;26845;50.190;19.178;2022-12-29T07:38:43;15.25;;;7.33;;
41101;SDS011;26845;50.190;19.178;2022-12-29T07:41:10;13.62;;;6.33;;
41101;SDS011;26845;50.190;19.178;2022-12-29T07:43:37;13.98;;;6.03;;
41101;SDS011;26845;50.190;19.178;2022-12-29T07:46:04;12.50;;;5.62;;
41101;SDS011;26845;50.190;19.178;2022-12-29T07:48:31;12.68;;;6.35;;
41101;SDS011;26845;50.190;19.178;2022-12-29T07:51:00;12.05;;;7.17;;
41101;SDS011;26845;50.190;19.178;2022-12-29T07:53:27;10.85;;;6.12;;
41101;SDS011;26845;50.190;19.178;2022-12-29T07:55:53;12.70;;;6.80;;
41101;SDS011;26845;50.190;19.178;2022-12-29T07:58:21;13.98;;;7.50;;
41101;SDS011;26845;50.190;19.178;2022-12-29T08:00:52;10.35;;;5.60;;
41101;SDS011;26845;50.190;19.178;2022-12-29T08:03:21;12.65;;;5.47;;
41101;SDS011;26845;50.190;19.178;2022-12-29T08:05:52;13.65;;;6.42;;
41101;SDS011;26845;50.190;19.178;2022-12-29T08:08:23;11.83;;;6.17;;
41101;SDS011;26845;50.190;19.178;2022-12-29T08:10:50;12.25;;;5.60;;
41101;SDS011;26845;50.190;19.178;2022-12-29T08:13:17;11.03;;;5.47;;
41101;SDS011;26845;50.190;19.178;2022-12-29T08:15:43;10.30;;;5.45;;
41101;SDS011;26845;50.190;19.178;2022-12-29T08:18:11;8.65;;;4.78;;
41101;SDS011;26845;50.190;19.178;2022-12-29T08:20:43;9.08;;;5.05;;
41101;SDS011;26845;50.190;19.178;2022-12-29T08:23:11;10.60;;;5.67;;
41101;SDS011;26845;50.190;19.178;2022-12-29T08:25:37;10.05;;;5.35;;
41101;SDS011;26845;50.190;19.178;2022-12-29T08:28:06;11.65;;;5.45;;
41101;SDS011;26845;50.190;19.178;2022-12-29T08:30:36;10.55;;;5.67;;
41101;SDS011;26845;50.190;19.178;2022-12-29T08:33:09;9.73;;;5.58;;
41101;SDS011;26845;50.190;19.178;2022-12-29T08:35:36;10.68;;;5.75;;
41101;SDS011;26845;50.190;19.178;2022-12-29T08:38:07;9.68;;;5.45;;
41101;SDS011;26845;50.190;19.178;2022-12-29T08:40:39;11.40;;;6.15;;
41101;SDS011;26845;50.190;19.178;2022-12-29T08:43:15;9.30;;;5.33;;
41101;SDS011;26845;50.190;19.178;2022-12-29T08:45:43;8.28;;;5.47;;
41101;SDS011;26845;50.190;19.178;2022-12-29T08:48:12;12.40;;;6.42;;
41101;SDS011;26845;50.190;19.178;2022-12-29T08:50:39;11.05;;;6.20;;
41101;SDS011;26845;50.190;19.178;2022-12-29T08:53:07;10.93;;;5.60;;
41101;SDS011;26845;50.190;19.178;2022-12-29T08:55:34;13.85;;;6.78;;
41101;SDS011;26845;50.190;19.178;2022-12-29T08:58:03;13.03;;;6.22;;
41101;SDS011;26845;50.190;19.178;2022-12-29T09:00:31;11.40;;;6.35;;
41101;SDS011;26845;50.190;19.178;2022-12-29T09:02:58;10.43;;;6.15;;
41101;SDS011;26845;50.190;19.178;2022-12-29T09:05:25;12.00;;;5.90;;
41101;SDS011;26845;50.190;19.178;2022-12-29T09:07:52;11.35;;;5.95;;
41101;SDS011;26845;50.190;19.178;2022-12-29T09:10:19;10.43;;;5.85;;
41101;SDS011;26845;50.190;19.178;2022-12-29T09:12:49;11.03;;;6.03;;
41101;SDS011;26845;50.190;19.178;2022-12-29T09:15:16;9.48;;;5.72;;
41101;SDS011;26845;50.190;19.178;2022-12-29T09:17:44;12.23;;;6.28;;
41101;SDS011;26845;50.190;19.178;2022-12-29T09:20:20;12.95;;;5.28;;
41101;SDS011;26845;50.190;19.178;2022-12-29T09:22:45;13.30;;;5.75;;
41101;SDS011;26845;50.190;19.178;2022-12-29T09:25:13;10.80;;;5.75;;
41101;SDS011;26845;50.190;19.178;2022-12-29T09:27:42;12.35;;;5.20;;
41101;SDS011;26845;50.190;19.178;2022-12-29T09:30:10;13.75;;;6.58;;
41101;SDS011;26845;50.190;19.178;2022-12-29T09:32:38;12.73;;;5.90;;
41101;SDS011;26845;50.190;19.178;2022-12-29T09:35:05;8.73;;;5.70;;
41101;SDS011;26845;50.190;19.178;2022-12-29T09:37:33;6.80;;;4.20;;
41101;SDS011;26845;50.190;19.178;2022-12-29T09:40:00;10.28;;;5.03;;
41101;SDS011;26845;50.190;19.178;2022-12-29T09:42:32;7.67;;;4.62;;
41101;SDS011;26845;50.190;19.178;2022-12-29T09:47:48;10.88;;;2.98;;
41101;SDS011;26845;50.190;19.178;2022-12-29T09:53:21;9.15;;;5.60;;
41101;SDS011;26845;50.190;19.178;2022-12-29T09:55:57;10.08;;;5.50;;
41101;SDS011;26845;50.190;19.178;2022-12-29T09:58:44;9.65;;;5.62;;
41101;SDS011;26845;50.190;19.178;2022-12-29T10:01:28;8.23;;;5.17;;
41101;SDS011;26845;50.190;19.178;2022-12-29T10:03:58;10.45;;;5.72;;
41101;SDS011;26845;50.190;19.178;2022-12-29T10:06:33;11.10;;;5.62;;
41101;SDS011;26845;50.190;19.178;2022-12-29T10:09:22;9.83;;;5.05;;
41101;SDS011;26845;50.190;19.178;2022-12-29T10:21:08;9.13;;;5.37;;
41101;SDS011;26845;50.190;19.178;2022-12-29T10:23:45;10.05;;;5.83;;
41101;SDS011;26845;50.190;19.178;2022-12-29T10:26:17;7.78;;;5.10;;
41101;SDS011;26845;50.190;19.178;2022-12-29T10:28:53;8.58;;;5.12;;
41101;SDS011;26845;50.190;19.178;2022-12-29T10:31:28;9.05;;;5.35;;
41101;SDS011;26845;50.190;19.178;2022-12-29T10:36:53;10.20;;;5.47;;
41101;SDS011;26845;50.190;19.178;2022-12-29T10:39:32;9.98;;;5.58;;
41101;SDS011;26845;50.190;19.178;2022-12-29T10:42:41;8.30;;;5.25;;
41101;SDS011;26845;50.190;19.178;2022-12-29T10:50:15;9.90;;;5.53;;
41101;SDS011;26845;50.190;19.178;2022-12-29T10:52:42;9.38;;;5.30;;
41101;SDS011;26845;50.190;19.178;2022-12-29T10:55:24;13.75;;;5.78;;
41101;SDS011;26845;50.190;19.178;2022-12-29T10:57:54;11.03;;;5.28;;
41101;SDS011;26845;50.190;19.178;2022-12-29T11:00:26;10.43;;;5.97;;
41101;SDS011;26845;50.190;19.178;2022-12-29T11:05:40;10.50;;;5.92;;
41101;SDS011;26845;50.190;19.178;2022-12-29T11:08:36;9.75;;;5.00;;
41101;SDS011;26845;50.190;19.178;2022-12-29T11:11:14;9.85;;;5.53;;
41101;SDS011;26845;50.190;19.178;2022-12-29T11:13:47;11.22;;;4.92;;
41101;SDS011;26845;50.190;19.178;2022-12-29T11:16:26;8.78;;;5.05;;
41101;SDS011;26845;50.190;19.178;2022-12-29T11:19:00;9.15;;;5.72;;
41101;SDS011;26845;50.190;19.178;2022-12-29T11:21:35;7.72;;;5.17;;
41101;SDS011;26845;50.190;19.178;2022-12-29T11:24:17;8.25;;;5.03;;
41101;SDS011;26845;50.190;19.178;2022-12-29T11:26:51;8.85;;;5.20;;
41101;SDS011;26845;50.190;19.178;2022-12-29T11:29:38;8.00;;;4.85;;
41101;SDS011;26845;50.190;19.178;2022-12-29T11:32:12;7.65;;;5.17;;
41101;SDS011;26845;50.190;19.178;2022-12-29T11:34:46;11.60;;;5.55;;
41101;SDS011;26845;50.190;19.178;2022-12-29T11:37:14;9.68;;;6.05;;
41101;SDS011;26845;50.190;19.178;2022-12-29T11:39:55;9.20;;;5.78;;
41101;SDS011;26845;50.190;19.178;2022-12-29T11:42:35;9.88;;;5.78;;
41101;SDS011;26845;50.190;19.178;2022-12-29T11:47:50;9.80;;;5.47;;
41101;SDS011;26845;50.190;19.178;2022-12-29T11:50:31;11.00;;;6.12;;
41101;SDS011;26845;50.190;19.178;2022-12-29T11:52:59;8.75;;;5.28;;
41101;SDS011;26845;50.190;19.178;2022-12-29T11:55:30;9.50;;;5.70;;
41101;SDS011;26845;50.190;19.178;2022-12-29T11:57:58;10.58;;;6.45;;
41101;SDS011;26845;50.190;19.178;2022-12-29T12:00:30;9.93;;;5.85;;
41101;SDS011;26845;50.190;19.178;2022-12-29T12:03:00;7.37;;;4.10;;
41101;SDS011;26845;50.190;19.178;2022-12-29T12:11:17;9.18;;;5.78;;
41101;SDS011;26845;50.190;19.178;2022-12-29T12:16:46;9.08;;;4.45;;
41101;SDS011;26845;50.190;19.178;2022-12-29T12:19:41;9.73;;;4.87;;
41101;SDS011;26845;50.190;19.178;2022-12-29T12:25:04;9.10;;;5.33;;
41101;SDS011;26845;50.190;19.178;2022-12-29T12:27:48;10.40;;;5.50;;
41101;SDS011;26845;50.190;19.178;2022-12-29T12:30:40;7.62;;;4.90;;
41101;SDS011;26845;50.190;19.178;2022-12-29T12:33:22;9.50;;;5.83;;
41101;SDS011;26845;50.190;19.178;2022-12-29T12:39:07;10.03;;;5.40;;
41101;SDS011;26845;50.190;19.178;2022-12-29T12:41:54;9.78;;;6.20;;
41101;SDS011;26845;50.190;19.178;2022-12-29T12:58:52;9.95;;;6.30;;
41101;SDS011;26845;50.190;19.178;2022-12-29T13:24:28;12.37;;;6.42;;
41101;SDS011;26845;50.190;19.178;2022-12-29T13:30:04;13.20;;;6.85;;
41101;SDS011;26845;50.190;19.178;2022-12-29T13:35:59;13.62;;;6.42;;
41101;SDS011;26845;50.190;19.178;2022-12-29T13:38:42;13.83;;;6.72;;
41101;SDS011;26845;50.190;19.178;2022-12-29T13:41:25;11.85;;;6.72;;
41101;SDS011;26845;50.190;19.178;2022-12-29T13:43:59;10.40;;;6.12;;
41101;SDS011;26845;50.190;19.178;2022-12-29T13:46:31;10.68;;;6.12;;
41101;SDS011;26845;50.190;19.178;2022-12-29T13:49:03;12.53;;;7.28;;
41101;SDS011;26845;50.190;19.178;2022-12-29T13:51:56;12.95;;;7.62;;
41101;SDS011;26845;50.190;19.178;2022-12-29T13:54:46;11.22;;;6.85;;
41101;SDS011;26845;50.190;19.178;2022-12-29T14:08:58;11.53;;;6.20;;
41101;SDS011;26845;50.190;19.178;2022-12-29T14:11:31;10.43;;;6.42;;
41101;SDS011;26845;50.190;19.178;2022-12-29T14:14:18;10.50;;;6.58;;
41101;SDS011;26845;50.190;19.178;2022-12-29T14:16:52;11.28;;;6.67;;
41101;SDS011;26845;50.190;19.178;2022-12-29T14:19:28;10.88;;;6.90;;
41101;SDS011;26845;50.190;19.178;2022-12-29T14:22:03;11.45;;;5.83;;
41101;SDS011;26845;50.190;19.178;2022-12-29T14:29:45;10.25;;;6.42;;
41101;SDS011;26845;50.190;19.178;2022-12-29T14:35:00;11.15;;;7.00;;
41101;SDS011;26845;50.190;19.178;2022-12-29T14:37:49;13.98;;;7.22;;
41101;SDS011;26845;50.190;19.178;2022-12-29T14:40:24;12.58;;;7.25;;
41101;SDS011;26845;50.190;19.178;2022-12-29T14:42:55;13.68;;;7.47;;
41101;SDS011;26845;50.190;19.178;2022-12-29T14:45:27;14.70;;;8.00;;
41101;SDS011;26845;50.190;19.178;2022-12-29T14:47:58;14.98;;;7.33;;
41101;SDS011;26845;50.190;19.178;2022-12-29T14:53:54;14.20;;;8.08;;
41101;SDS011;26845;50.190;19.178;2022-12-29T14:56:17;13.18;;;7.58;;
41101;SDS011;26845;50.190;19.178;2022-12-29T14:58:55;13.58;;;7.53;;
41101;SDS011;26845;50.190;19.178;2022-12-29T15:01:46;15.68;;;8.78;;
41101;SDS011;26845;50.190;19.178;2022-12-29T15:04:18;13.80;;;8.13;;
41101;SDS011;26845;50.190;19.178;2022-12-29T15:06:49;12.70;;;8.30;;
41101;SDS011;26845;50.190;19.178;2022-12-29T15:12:11;12.35;;;7.28;;
41101;SDS011;26845;50.190;19.178;2022-12-29T15:14:59;15.23;;;8.30;;
41101;SDS011;26845;50.190;19.178;2022-12-29T15:17:29;16.27;;;8.03;;
41101;SDS011;26845;50.190;19.178;2022-12-29T15:20:00;12.18;;;7.50;;
41101;SDS011;26845;50.190;19.178;2022-12-29T15:22:31;14.23;;;7.50;;
41101;SDS011;26845;50.190;19.178;2022-12-29T15:24:58;12.40;;;7.62;;
41101;SDS011;26845;50.190;19.178;2022-12-29T15:27:25;14.13;;;8.25;;
41101;SDS011;26845;50.190;19.178;2022-12-29T15:30:00;12.65;;;7.62;;
41101;SDS011;26845;50.190;19.178;2022-12-29T15:32:39;15.70;;;8.25;;
41101;SDS011;26845;50.190;19.178;2022-12-29T15:35:25;16.70;;;7.72;;
41101;SDS011;26845;50.190;19.178;2022-12-29T15:38:12;17.77;;;8.28;;
41101;SDS011;26845;50.190;19.178;2022-12-29T15:40:45;14.60;;;8.00;;
41101;SDS011;26845;50.190;19.178;2022-12-29T15:46:03;21.50;;;9.90;;
41101;SDS011;26845;50.190;19.178;2022-12-29T15:48:30;18.27;;;8.75;;
41101;SDS011;26845;50.190;19.178;2022-12-29T15:50:59;14.60;;;8.40;;
41101;SDS011;26845;50.190;19.178;2022-12-29T15:53:28;15.10;;;8.00;;
41101;SDS011;26845;50.190;19.178;2022-12-29T15:55:59;18.82;;;9.33;;
41101;SDS011;26845;50.190;19.178;2022-12-29T15:58:39;17.60;;;8.98;;
41101;SDS011;26845;50.190;19.178;2022-12-29T16:01:23;15.40;;;8.15;;
41101;SDS011;26845;50.190;19.178;2022-12-29T16:03:58;16.65;;;8.98;;
41101;SDS011;26845;50.190;19.178;2022-12-29T16:06:32;17.95;;;8.98;;
41101;SDS011;26845;50.190;19.178;2022-12-29T16:09:19;17.42;;;9.50;;
41101;SDS011;26845;50.190;19.178;2022-12-29T16:11:54;12.80;;;8.23;;
41101;SDS011;26845;50.190;19.178;2022-12-29T16:14:27;15.38;;;8.30;;
41101;SDS011;26845;50.190;19.178;2022-12-29T16:17:01;15.13;;;7.65;;
41101;SDS011;26845;50.190;19.178;2022-12-29T16:22:03;15.15;;;8.68;;
41101;SDS011;26845;50.190;19.178;2022-12-29T16:24:40;14.95;;;8.30;;
41101;SDS011;26845;50.190;19.178;2022-12-29T16:27:09;18.50;;;9.78;;
41101;SDS011;26845;50.190;19.178;2022-12-29T16:29:56;17.42;;;8.60;;
41101;SDS011;26845;50.190;19.178;2022-12-29T16:32:26;16.45;;;9.70;;
41101;SDS011;26845;50.190;19.178;2022-12-29T16:38:31;18.73;;;9.83;;
41101;SDS011;26845;50.190;19.178;2022-12-29T16:40:50;15.20;;;8.63;;
41101;SDS011;26845;50.190;19.178;2022-12-29T16:43:27;18.07;;;9.33;;
41101;SDS011;26845;50.190;19.178;2022-12-29T16:48:53;18.05;;;10.78;;
41101;SDS011;26845;50.190;19.178;2022-12-29T16:51:33;18.87;;;10.08;;
41101;SDS011;26845;50.190;19.178;2022-12-29T16:54:03;17.87;;;10.03;;
41101;SDS011;26845;50.190;19.178;2022-12-29T16:56:32;18.62;;;10.38;;
41101;SDS011;26845;50.190;19.178;2022-12-29T16:59:04;20.00;;;9.98;;
41101;SDS011;26845;50.190;19.178;2022-12-29T17:01:37;16.65;;;9.83;;
41101;SDS011;26845;50.190;19.178;2022-12-29T17:04:06;21.90;;;10.70;;
41101;SDS011;26845;50.190;19.178;2022-12-29T17:06:37;20.35;;;10.55;;
41101;SDS011;26845;50.190;19.178;2022-12-29T17:09:21;21.68;;;10.98;;
41101;SDS011;26845;50.190;19.178;2022-12-29T17:11:52;22.98;;;10.78;;
41101;SDS011;26845;50.190;19.178;2022-12-29T17:14:35;18.75;;;10.43;;
41101;SDS011;26845;50.190;19.178;2022-12-29T17:17:13;18.12;;;10.82;;
41101;SDS011;26845;50.190;19.178;2022-12-29T17:19:53;21.75;;;10.45;;
41101;SDS011;26845;50.190;19.178;2022-12-29T17:22:25;20.50;;;11.30;;
41101;SDS011;26845;50.190;19.178;2022-12-29T17:24:55;15.83;;;9.57;;
41101;SDS011;26845;50.190;19.178;2022-12-29T17:30:09;18.77;;;10.13;;
41101;SDS011;26845;50.190;19.178;2022-12-29T17:32:37;21.33;;;11.20;;
41101;SDS011;26845;50.190;19.178;2022-12-29T17:35:16;21.33;;;11.57;;
41101;SDS011;26845;50.190;19.178;2022-12-29T17:37:46;20.17;;;10.00;;
41101;SDS011;26845;50.190;19.178;2022-12-29T17:40:15;22.62;;;11.30;;